createdAt,value
2019-04-05T00:00:48.099Z,-0.87
2019-04-05T00:03:19.793Z,-0.91
2019-04-05T00:05:51.452Z,-0.93
2019-04-05T00:08:23.207Z,-0.92
2019-04-05T00:10:54.885Z,-0.93
2019-04-05T00:13:27.751Z,-0.97
2019-04-05T00:15:59.306Z,-1.00
2019-04-05T00:18:30.982Z,-1.04
2019-04-05T00:21:02.629Z,-1.06
2019-04-05T00:23:34.281Z,-1.09
2019-04-05T00:26:06.149Z,-1.08
2019-04-05T00:28:37.722Z,-1.10
2019-04-05T00:31:09.360Z,-1.10
2019-04-05T00:33:40.912Z,-1.10
2019-04-05T00:36:12.678Z,-1.11
2019-04-05T00:38:44.125Z,-1.13
2019-04-05T00:41:15.694Z,-1.13
2019-04-05T00:43:47.459Z,-1.15
2019-04-05T00:46:19.115Z,-1.17
2019-04-05T00:48:50.758Z,-1.20
2019-04-05T00:51:22.619Z,-1.26
2019-04-05T00:53:53.959Z,-1.30
2019-04-05T00:56:26.753Z,-1.34
2019-04-05T00:58:58.106Z,-1.38
2019-04-05T01:01:29.663Z,-1.39
2019-04-05T01:04:01.332Z,-1.44
2019-04-05T01:06:32.996Z,-1.46
2019-04-05T01:09:06.248Z,-1.47
2019-04-05T01:11:37.620Z,-1.50
2019-04-05T01:14:09.187Z,-1.51
2019-04-05T01:16:40.936Z,-1.52
2019-04-05T01:19:12.737Z,-1.56
2019-04-05T01:21:46.301Z,-1.55
2019-04-05T01:24:18.062Z,-1.51
2019-04-05T01:26:49.400Z,-1.49
2019-04-05T01:29:21.071Z,-1.48
2019-04-05T01:31:52.831Z,-1.47
2019-04-05T01:34:24.691Z,-1.47
2019-04-05T01:36:56.245Z,-1.43
2019-04-05T01:39:28.009Z,-1.43
2019-04-05T01:41:59.769Z,-1.41
2019-04-05T01:44:31.323Z,-1.40
2019-04-05T01:47:03.030Z,-1.41
2019-04-05T01:49:34.654Z,-1.44
2019-04-05T01:52:06.498Z,-1.48
2019-04-05T01:54:38.066Z,-1.50
2019-04-05T01:57:09.719Z,-1.55
2019-04-05T01:59:42.511Z,-1.59
2019-04-05T02:02:14.258Z,-1.61
2019-04-05T02:04:45.813Z,-1.62
2019-04-05T02:07:17.471Z,-1.65
2019-04-05T02:09:49.335Z,-1.64
2019-04-05T02:12:20.787Z,-1.67
2019-04-05T02:14:52.272Z,-1.66
2019-04-05T02:17:23.997Z,-1.70
2019-04-05T02:19:55.763Z,-1.69
2019-04-05T02:22:27.420Z,-1.73
2019-04-05T02:24:58.977Z,-1.76
2019-04-05T02:27:30.846Z,-1.76
2019-04-05T02:30:02.392Z,-1.79
2019-04-05T02:32:34.256Z,-1.68
2019-04-05T02:35:06.736Z,-1.66
2019-04-05T02:37:38.182Z,-1.65
2019-04-05T02:40:14.501Z,-1.64
2019-04-05T02:42:48.340Z,-1.63
2019-04-05T02:45:20.114Z,-1.66
2019-04-05T02:47:54.003Z,-1.68
2019-04-05T02:50:26.067Z,-1.69
2019-04-05T02:52:59.603Z,-1.72
2019-04-05T02:55:31.045Z,-1.76
2019-04-05T02:58:02.712Z,-1.81
2019-04-05T03:00:34.463Z,-1.89
2019-04-05T03:03:06.162Z,-1.89
2019-04-05T03:05:37.887Z,-1.94
2019-04-05T03:08:09.749Z,-1.97
2019-04-05T03:11:03.835Z,-2.02
2019-04-05T03:13:36.598Z,-2.06
2019-04-05T03:16:12.862Z,-2.08
2019-04-05T03:18:47.318Z,-2.15
2019-04-05T03:21:19.038Z,-2.16
2019-04-05T03:23:50.731Z,-2.13
2019-04-05T03:26:23.378Z,-2.20
2019-04-05T03:28:55.071Z,-2.15
2019-04-05T03:31:27.114Z,-2.10
2019-04-05T03:33:58.769Z,-2.09
2019-04-05T03:36:30.622Z,-2.08
2019-04-05T03:39:02.111Z,-2.07
2019-04-05T03:41:34.261Z,-2.07
2019-04-05T03:44:06.419Z,-2.04
2019-04-05T03:46:37.773Z,-2.04
2019-04-05T03:49:09.233Z,-2.00
2019-04-05T03:51:40.877Z,-1.97
2019-04-05T03:54:12.432Z,-1.92
2019-04-05T03:56:44.197Z,-1.86
2019-04-05T03:59:17.299Z,-1.77
2019-04-05T04:01:48.939Z,-1.70
2019-04-05T04:04:20.631Z,-1.60
2019-04-05T04:06:52.366Z,-1.50
2019-04-05T04:09:24.015Z,-1.38
2019-04-05T04:11:55.480Z,-1.28
2019-04-05T04:14:27.329Z,-1.13
2019-04-05T04:17:11.514Z,-1.02
2019-04-05T04:19:33.612Z,-0.84
2019-04-05T04:22:11.110Z,-0.70
2019-04-05T04:24:42.661Z,-0.58
2019-04-05T04:27:14.317Z,-0.45
2019-04-05T04:29:45.809Z,-0.31
2019-04-05T04:32:17.740Z,-0.17
2019-04-05T04:34:49.188Z,-0.01
2019-04-05T04:37:20.770Z,0.16
2019-04-05T04:39:52.603Z,0.34
2019-04-05T04:42:24.167Z,0.49
2019-04-05T04:44:55.843Z,0.70
2019-04-05T04:47:27.633Z,0.96
2019-04-05T04:49:59.340Z,1.22
2019-04-05T04:52:31.576Z,1.47
2019-04-05T04:55:03.089Z,1.79
2019-04-05T04:57:34.918Z,2.05
2019-04-05T05:00:06.689Z,2.31
2019-04-05T05:02:38.416Z,2.61
2019-04-05T05:05:10.209Z,2.95
2019-04-05T05:07:41.974Z,3.30
2019-04-05T05:10:13.738Z,3.65
2019-04-05T05:12:45.385Z,4.06
2019-04-05T05:15:18.276Z,4.28
2019-04-05T05:17:58.421Z,4.71
2019-04-05T05:20:22.815Z,4.99
2019-04-05T05:22:56.011Z,5.29
2019-04-05T05:25:27.767Z,5.46
2019-04-05T05:28:00.549Z,5.91
2019-04-05T05:30:33.030Z,6.08
2019-04-05T05:33:04.585Z,6.12
2019-04-05T05:35:36.247Z,6.26
2019-04-05T05:38:07.801Z,6.37
2019-04-05T05:40:39.557Z,6.46
2019-04-05T05:43:11.321Z,6.56
2019-04-05T05:45:42.871Z,6.68
2019-04-05T05:48:14.737Z,6.63
2019-04-05T05:50:46.493Z,6.84
2019-04-05T05:53:17.816Z,7.16
2019-04-05T05:55:49.609Z,7.36
2019-04-05T05:58:21.223Z,7.35
2019-04-05T06:00:53.948Z,7.46
2019-04-05T06:03:25.813Z,7.46
2019-04-05T06:06:04.094Z,7.62
2019-04-05T06:08:30.758Z,7.76
2019-04-05T06:11:02.520Z,8.00
2019-04-05T06:13:34.388Z,8.02
2019-04-05T06:16:06.891Z,8.06
2019-04-05T06:18:39.536Z,8.07
2019-04-05T06:21:11.111Z,7.97
2019-04-05T06:23:42.676Z,8.17
2019-04-05T06:26:14.309Z,8.31
2019-04-05T06:28:46.166Z,8.60
2019-04-05T06:31:17.965Z,8.48
2019-04-05T06:33:49.693Z,8.72
2019-04-05T06:36:21.244Z,8.77
2019-04-05T06:38:52.907Z,8.88
2019-04-05T06:41:24.557Z,8.98
2019-04-05T06:43:56.436Z,9.20
2019-04-05T06:46:27.879Z,9.25
2019-04-05T06:48:59.740Z,9.33
2019-04-05T06:51:31.398Z,9.34
2019-04-05T06:54:03.478Z,9.37
2019-04-05T06:56:35.937Z,9.43
2019-04-05T06:59:09.753Z,9.23
2019-04-05T07:01:41.205Z,9.17
2019-04-05T07:04:13.065Z,9.19
2019-04-05T07:06:44.724Z,9.03
2019-04-05T07:09:16.589Z,9.04
2019-04-05T07:11:48.343Z,9.05
2019-04-05T07:14:20.205Z,9.13
2019-04-05T07:16:52.553Z,9.21
2019-04-05T07:19:24.143Z,9.18
2019-04-05T07:21:55.895Z,9.22
2019-04-05T07:24:27.348Z,9.31
2019-04-05T07:26:59.015Z,9.41
2019-04-05T07:29:30.396Z,9.50
2019-04-05T07:32:02.121Z,9.61
2019-04-05T07:34:33.572Z,9.76
2019-04-05T07:37:05.236Z,9.83
2019-04-05T07:39:37.089Z,9.81
2019-04-05T07:42:08.545Z,9.77
2019-04-05T07:44:40.308Z,9.76
2019-04-05T07:47:11.759Z,9.88
2019-04-05T07:49:43.341Z,10.01
2019-04-05T07:52:15.068Z,10.04
2019-04-05T07:54:46.861Z,10.14
2019-04-05T07:57:18.596Z,10.21
2019-04-05T07:59:50.086Z,10.32
2019-04-05T08:02:21.711Z,10.43
2019-04-05T08:04:54.763Z,10.52
2019-04-05T08:07:29.634Z,10.51
2019-04-05T08:10:02.999Z,10.55
2019-04-05T08:12:34.374Z,10.63
2019-04-05T08:15:06.527Z,10.63
2019-04-05T08:17:39.315Z,10.69
2019-04-05T08:20:11.085Z,10.79
2019-04-05T08:22:42.848Z,10.83
2019-04-05T08:25:14.315Z,10.90
2019-04-05T08:27:46.164Z,10.85
2019-04-05T08:30:17.821Z,10.88
2019-04-05T08:32:49.486Z,10.97
2019-04-05T08:35:21.243Z,10.84
2019-04-05T08:37:52.997Z,10.96
2019-04-05T08:40:24.655Z,11.03
2019-04-05T08:42:56.731Z,11.14
2019-04-05T08:45:28.186Z,11.25
2019-04-05T08:47:59.936Z,11.19
2019-04-05T08:50:31.328Z,11.28
2019-04-05T08:53:02.947Z,11.46
2019-04-05T08:55:34.806Z,11.50
2019-04-05T08:58:06.470Z,11.60
2019-04-05T09:00:38.431Z,11.60
2019-04-05T09:03:11.924Z,11.60
2019-04-05T09:05:43.896Z,11.62
2019-04-05T09:08:15.455Z,11.69
2019-04-05T09:10:47.115Z,11.69
2019-04-05T09:13:18.864Z,11.74
2019-04-05T09:15:50.527Z,11.85
2019-04-05T09:18:23.363Z,11.91
2019-04-05T09:20:55.002Z,12.06
2019-04-05T09:23:26.727Z,12.22
2019-04-05T09:25:58.194Z,12.20
2019-04-05T09:28:30.042Z,12.34
2019-04-05T09:31:01.598Z,12.35
2019-04-05T09:33:33.254Z,12.40
2019-04-05T09:36:04.653Z,12.42
2019-04-05T09:38:36.366Z,12.46
2019-04-05T09:41:07.793Z,12.44
2019-04-05T09:43:39.491Z,12.52
2019-04-05T09:46:11.238Z,12.48
2019-04-05T09:48:42.901Z,12.47
2019-04-05T09:51:14.832Z,12.42
2019-04-05T09:53:46.415Z,12.41
2019-04-05T09:56:18.072Z,12.31
2019-04-05T09:58:49.950Z,12.43
2019-04-05T10:01:21.705Z,12.42
2019-04-05T10:03:53.352Z,12.60
2019-04-05T10:06:24.914Z,12.73
2019-04-05T10:08:56.566Z,12.88
2019-04-05T10:11:28.232Z,13.02
2019-04-05T10:14:00.090Z,12.81
2019-04-05T10:16:31.643Z,12.84
2019-04-05T10:19:03.405Z,12.94
2019-04-05T10:21:34.902Z,12.86
2019-04-05T10:24:06.720Z,12.82
2019-04-05T10:26:38.397Z,12.95
2019-04-05T10:29:10.133Z,13.01
2019-04-05T10:31:41.901Z,13.03
2019-04-05T10:34:13.451Z,12.92
2019-04-05T10:36:45.109Z,12.83
2019-04-05T10:39:16.869Z,12.99
2019-04-05T10:41:48.428Z,12.80
2019-04-05T10:44:20.392Z,13.01
2019-04-05T10:46:52.903Z,13.05
2019-04-05T10:49:24.634Z,13.09
2019-04-05T10:51:56.125Z,13.13
2019-04-05T10:54:27.839Z,13.05
2019-04-05T10:56:59.407Z,12.98
2019-04-05T10:59:31.167Z,13.12
2019-04-05T11:02:02.934Z,13.16
2019-04-05T11:04:34.674Z,13.01
2019-04-05T11:07:06.343Z,12.96
2019-04-05T11:09:38.298Z,13.07
2019-04-05T11:12:09.956Z,13.12
2019-04-05T11:14:41.716Z,13.23
2019-04-05T11:17:13.375Z,13.08
2019-04-05T11:19:45.133Z,13.03
2019-04-05T11:22:20.194Z,13.03
2019-04-05T11:24:50.137Z,13.13
2019-04-05T11:27:22.976Z,13.22
2019-04-05T11:29:54.565Z,13.46
2019-04-05T11:32:26.295Z,13.43
2019-04-05T11:34:57.844Z,13.55
2019-04-05T11:37:29.603Z,13.51
2019-04-05T11:40:01.473Z,13.53
2019-04-05T11:42:33.303Z,13.53
2019-04-05T11:45:05.808Z,13.51
2019-04-05T11:47:37.742Z,13.62
2019-04-05T11:50:10.576Z,13.52
2019-04-05T11:52:41.947Z,13.52
2019-04-05T11:55:13.386Z,13.53
2019-04-05T11:57:44.822Z,13.62
2019-04-05T12:00:32.922Z,13.86
2019-04-05T12:03:18.167Z,13.85
2019-04-05T12:05:49.611Z,13.93
2019-04-05T12:08:21.092Z,13.95
2019-04-05T12:10:52.786Z,13.84
2019-04-05T12:13:24.164Z,13.92
2019-04-05T12:15:58.006Z,13.80
2019-04-05T12:18:28.616Z,13.93
2019-04-05T12:21:00.812Z,13.94
2019-04-05T12:23:33.555Z,13.91
2019-04-05T12:26:05.323Z,13.88
2019-04-05T12:28:36.642Z,13.82
2019-04-05T12:31:08.136Z,13.93
2019-04-05T12:33:39.600Z,13.86
2019-04-05T12:36:11.172Z,13.78
2019-04-05T12:38:42.545Z,13.79
2019-04-05T12:41:13.971Z,13.85
2019-04-05T12:43:45.694Z,13.84
2019-04-05T12:46:17.172Z,13.71
2019-04-05T12:48:48.615Z,13.78
2019-04-05T12:51:20.171Z,13.93
2019-04-05T12:53:51.635Z,14.05
2019-04-05T12:56:26.209Z,13.93
2019-04-05T12:58:56.732Z,13.98
2019-04-05T13:01:28.066Z,14.01
2019-04-05T13:04:00.510Z,13.95
2019-04-05T13:06:32.008Z,13.82
2019-04-05T13:09:05.590Z,13.87
2019-04-05T13:11:37.428Z,13.82
2019-04-05T13:14:08.926Z,13.92
2019-04-05T13:16:40.343Z,13.88
2019-04-05T13:19:11.905Z,13.87
2019-04-05T13:21:43.363Z,13.91
2019-04-05T13:24:14.789Z,13.88
2019-04-05T13:26:46.260Z,13.77
2019-04-05T13:29:19.668Z,13.68
2019-04-05T13:31:50.802Z,13.62
2019-04-05T13:34:25.489Z,13.73
2019-04-05T13:36:55.358Z,13.75
2019-04-05T13:39:27.556Z,13.86
2019-04-05T13:42:01.777Z,13.80
2019-04-05T13:44:33.080Z,13.83
2019-04-05T13:47:08.076Z,13.83
2019-04-05T13:49:38.543Z,13.90
2019-04-05T13:52:12.023Z,13.79
2019-04-05T13:54:44.123Z,13.90
2019-04-05T13:57:15.580Z,13.71
2019-04-05T13:59:47.240Z,13.73
2019-04-05T14:02:21.056Z,13.84
2019-04-05T14:04:53.853Z,13.80
2019-04-05T14:07:25.354Z,13.90
2019-04-05T14:09:56.803Z,13.87
2019-04-05T14:12:31.095Z,13.85
2019-04-05T14:15:01.267Z,14.00
2019-04-05T14:17:32.652Z,14.12
2019-04-05T14:20:04.859Z,14.20
2019-04-05T14:22:36.242Z,14.09
2019-04-05T14:25:07.852Z,14.18
2019-04-05T14:27:40.333Z,14.38
2019-04-05T14:30:13.617Z,14.71
2019-04-05T14:32:45.028Z,14.77
2019-04-05T14:35:16.971Z,15.20
2019-04-05T14:37:48.439Z,15.25
2019-04-05T14:40:19.894Z,15.38
2019-04-05T14:42:51.281Z,15.21
2019-04-05T14:45:22.697Z,15.09
2019-04-05T14:47:57.710Z,15.05
2019-04-05T14:50:28.207Z,15.07
2019-04-05T14:53:01.727Z,14.96
2019-04-05T14:55:33.431Z,14.61
2019-04-05T14:58:06.015Z,14.58
2019-04-05T15:00:37.652Z,14.55
2019-04-05T15:03:09.015Z,14.29
2019-04-05T15:05:40.454Z,14.15
2019-04-05T15:08:11.917Z,14.06
2019-04-05T15:10:43.377Z,14.00
2019-04-05T15:13:14.851Z,13.81
2019-04-05T15:15:46.371Z,13.62
2019-04-05T15:18:19.549Z,13.57
2019-04-05T15:20:50.916Z,13.39
2019-04-05T15:23:22.271Z,13.30
2019-04-05T15:25:53.765Z,13.26
2019-04-05T15:28:25.322Z,13.17
2019-04-05T15:30:56.759Z,13.13
2019-04-05T15:33:28.449Z,13.02
2019-04-05T15:36:02.839Z,12.94
2019-04-05T15:38:34.157Z,12.84
2019-04-05T15:41:05.657Z,12.86
2019-04-05T15:43:37.070Z,12.76
2019-04-05T15:46:08.533Z,12.66
2019-04-05T15:48:39.885Z,12.60
2019-04-05T15:51:11.235Z,12.48
2019-04-05T15:53:42.691Z,12.39
2019-04-05T15:56:14.147Z,12.29
2019-04-05T15:58:45.601Z,12.21
2019-04-05T16:01:17.104Z,12.09
2019-04-05T16:03:48.508Z,12.01
2019-04-05T16:06:20.159Z,11.90
2019-04-05T16:08:51.617Z,11.77
2019-04-05T16:11:23.118Z,11.66
2019-04-05T16:13:54.572Z,11.56
2019-04-05T16:16:26.589Z,11.43
2019-04-05T16:18:58.360Z,11.31
2019-04-05T16:21:29.838Z,11.18
2019-04-05T16:24:01.274Z,11.02
2019-04-05T16:26:32.718Z,10.81
2019-04-05T16:29:04.113Z,10.62
2019-04-05T16:31:35.532Z,10.43
2019-04-05T16:34:06.986Z,10.24
2019-04-05T16:36:38.653Z,10.10
2019-04-05T16:39:11.616Z,9.92
2019-04-05T16:41:43.131Z,9.79
2019-04-05T16:44:14.483Z,9.65
2019-04-05T16:46:45.854Z,9.50
2019-04-05T16:49:17.325Z,9.36
2019-04-05T16:51:48.814Z,9.17
2019-04-05T16:54:20.234Z,8.92
2019-04-05T16:56:51.704Z,8.72
2019-04-05T16:59:23.345Z,8.54
2019-04-05T17:01:56.818Z,8.42
2019-04-05T17:04:27.888Z,8.25
2019-04-05T17:06:59.581Z,8.12
2019-04-05T17:09:31.014Z,8.00
2019-04-05T17:12:02.442Z,7.88
2019-04-05T17:14:33.902Z,7.76
2019-04-05T17:17:05.264Z,7.68
2019-04-05T17:19:36.728Z,7.61
2019-04-05T17:22:08.089Z,7.52
2019-04-05T17:24:39.771Z,7.43
2019-04-05T17:27:10.995Z,7.29
2019-04-05T17:29:42.423Z,7.19
2019-04-05T17:32:13.916Z,7.09
2019-04-05T17:34:45.294Z,7.01
2019-04-05T17:37:16.698Z,6.88
2019-04-05T17:39:48.181Z,6.79
2019-04-05T17:42:19.589Z,6.59
2019-04-05T17:44:50.935Z,6.40
2019-04-05T17:47:22.309Z,6.36
2019-04-05T17:49:53.752Z,6.32
2019-04-05T17:52:25.098Z,6.26
2019-04-05T17:54:56.562Z,6.19
2019-04-05T17:57:28.007Z,6.14
2019-04-05T17:59:59.458Z,6.10
2019-04-05T18:02:30.914Z,6.06
2019-04-05T18:05:02.371Z,6.02
2019-04-05T18:07:34.042Z,5.96
2019-04-05T18:10:06.286Z,5.92
2019-04-05T18:12:37.755Z,5.86
2019-04-05T18:15:09.125Z,5.80
2019-04-05T18:17:40.551Z,5.77
2019-04-05T18:20:12.008Z,5.72
2019-04-05T18:22:43.468Z,5.69
2019-04-05T18:25:14.813Z,5.68
2019-04-05T18:27:46.382Z,5.65
2019-04-05T18:30:17.843Z,5.61
2019-04-05T18:32:49.272Z,5.57
2019-04-05T18:35:22.278Z,5.52
2019-04-05T18:37:53.737Z,5.43
2019-04-05T18:40:25.112Z,5.32
2019-04-05T18:42:56.737Z,5.20
2019-04-05T18:45:28.121Z,5.16
2019-04-05T18:47:59.538Z,5.12
2019-04-05T18:50:31.041Z,5.06
2019-04-05T18:53:02.426Z,4.99
2019-04-05T18:55:33.913Z,4.92
2019-04-05T18:58:05.490Z,4.89
2019-04-05T19:00:36.899Z,4.85
2019-04-05T19:03:08.468Z,4.83
2019-04-05T19:05:40.055Z,4.77
2019-04-05T19:08:11.473Z,4.73
2019-04-05T19:10:42.925Z,4.67
2019-04-05T19:13:14.405Z,4.59
2019-04-05T19:15:46.027Z,4.51
2019-04-05T19:18:17.451Z,4.43
2019-04-05T19:20:48.944Z,4.40
2019-04-05T19:23:20.395Z,4.34
2019-04-05T19:25:51.849Z,4.33
2019-04-05T19:28:23.297Z,4.29
2019-04-05T19:48:48.852Z,3.98
2019-04-05T19:51:20.307Z,3.93
2019-04-05T19:54:00.825Z,3.84
2019-04-05T19:56:24.844Z,3.80
2019-04-05T19:58:56.232Z,3.75
2019-04-05T20:01:27.629Z,3.71
2019-04-05T20:03:59.251Z,3.71
2019-04-05T20:06:30.875Z,3.67
2019-04-05T20:09:02.285Z,3.64
2019-04-05T20:11:35.108Z,3.49
2019-04-05T20:14:06.571Z,3.44
2019-04-05T20:16:38.028Z,3.37
2019-04-05T20:19:09.581Z,3.35
2019-04-05T20:21:41.044Z,3.34
2019-04-05T20:24:14.573Z,3.40
2019-04-05T20:26:46.161Z,3.36
2019-04-05T20:29:17.632Z,3.34
2019-04-05T20:31:49.051Z,3.31
2019-04-05T20:34:20.439Z,3.27
2019-04-05T20:36:51.933Z,3.22
2019-04-05T20:39:23.319Z,3.18
2019-04-05T20:41:54.684Z,3.16
2019-04-05T20:44:26.149Z,3.10
2019-04-05T20:46:57.526Z,3.06
2019-04-05T20:49:28.960Z,3.03
2019-04-05T20:52:00.476Z,3.00
2019-04-05T20:54:31.907Z,2.95
2019-04-05T20:57:03.329Z,2.91
2019-04-05T20:59:34.766Z,2.85
2019-04-05T21:02:06.237Z,2.83
2019-04-05T21:04:37.609Z,2.84
2019-04-05T21:07:09.023Z,2.86
2019-04-05T21:09:40.579Z,2.86
2019-04-05T21:12:12.036Z,2.85
2019-04-05T21:14:43.588Z,2.82
2019-04-05T21:17:15.033Z,2.78
2019-04-05T21:19:46.492Z,2.74
2019-04-05T21:22:17.892Z,2.69
2019-04-05T21:24:49.301Z,2.63
2019-04-05T21:27:20.746Z,2.57
2019-04-05T21:29:52.225Z,2.56
2019-04-05T21:32:23.632Z,2.52
2019-04-05T21:34:55.105Z,2.48
2019-04-05T21:37:28.721Z,2.43
2019-04-05T21:40:00.168Z,2.37
2019-04-05T21:42:31.821Z,2.32
2019-04-05T21:45:03.317Z,2.29
2019-04-05T21:47:34.733Z,2.21
2019-04-05T21:50:07.398Z,2.11
2019-04-05T21:52:38.875Z,2.05
2019-04-05T21:55:11.835Z,1.99
2019-04-05T21:57:43.429Z,1.97
2019-04-05T22:00:31.428Z,1.92
2019-04-05T22:03:04.734Z,1.90
2019-04-05T22:05:37.318Z,1.87
2019-04-05T22:08:08.997Z,1.88
2019-04-05T22:10:41.660Z,1.85
2019-04-05T22:13:13.335Z,1.83
2019-04-05T22:15:44.921Z,1.82
2019-04-05T22:18:16.539Z,1.80
2019-04-05T22:20:49.230Z,1.77
2019-04-05T22:23:20.882Z,1.73
2019-04-05T22:25:52.550Z,1.70
2019-04-05T22:28:24.197Z,1.70
2019-04-05T22:30:55.865Z,1.63
2019-04-05T22:33:27.739Z,1.62
2019-04-05T22:35:59.377Z,1.56
2019-04-05T22:38:31.060Z,1.51
2019-04-05T22:41:02.728Z,1.43
2019-04-05T22:43:34.310Z,1.39
2019-04-05T22:46:05.890Z,1.37
2019-04-05T22:48:37.585Z,1.29
2019-04-05T22:51:09.277Z,1.28
2019-04-05T22:53:40.947Z,1.26
2019-04-05T22:56:12.652Z,1.23
2019-04-05T22:58:44.334Z,1.20
2019-04-05T23:01:15.927Z,1.18
2019-04-05T23:03:47.610Z,1.16
2019-04-05T23:06:19.294Z,1.11
2019-04-05T23:08:50.933Z,1.10
2019-04-05T23:11:22.605Z,1.07
2019-04-05T23:13:54.241Z,1.06
2019-04-05T23:16:25.815Z,1.00
2019-04-05T23:18:57.485Z,1.00
2019-04-05T23:21:29.133Z,0.98
2019-04-05T23:24:00.813Z,0.93
2019-04-05T23:26:32.426Z,0.88
2019-04-05T23:29:04.086Z,0.83
2019-04-05T23:31:35.737Z,0.79
2019-04-05T23:34:07.403Z,0.80
2019-04-05T23:36:39.196Z,0.86
2019-04-05T23:39:10.817Z,0.88
2019-04-05T23:41:42.478Z,0.87
2019-04-05T23:44:14.146Z,0.88
2019-04-05T23:46:45.830Z,0.89
2019-04-05T23:49:17.461Z,0.87
2019-04-05T23:51:49.094Z,0.87
2019-04-05T23:54:20.686Z,0.83
2019-04-05T23:56:52.339Z,0.84
2019-04-05T23:59:24.962Z,0.81
